createdAt,value
2019-05-16T00:01:19.303Z,2.10
2019-05-16T00:03:48.879Z,2.40
2019-05-16T00:06:17.992Z,2.57
2019-05-16T00:08:48.050Z,2.70
2019-05-16T00:11:18.021Z,2.70
2019-05-16T00:13:48.805Z,2.73
2019-05-16T00:16:18.660Z,2.80
2019-05-16T00:18:47.929Z,2.80
2019-05-16T00:21:17.967Z,2.80
2019-05-16T00:23:48.599Z,2.27
2019-05-16T00:26:19.473Z,3.00
2019-05-16T00:28:48.432Z,2.70
2019-05-16T00:31:18.298Z,2.43
2019-05-16T00:33:48.725Z,2.70
2019-05-16T00:36:18.914Z,2.30
2019-05-16T00:38:48.501Z,1.93
2019-05-16T00:41:17.944Z,2.10
2019-05-16T00:43:48.553Z,1.97
2019-05-16T00:46:17.128Z,2.13
2019-05-16T00:48:48.577Z,1.93
2019-05-16T00:51:18.279Z,2.10
2019-05-16T00:53:48.368Z,2.33
2019-05-16T00:56:18.550Z,2.00
2019-05-16T00:58:48.425Z,2.27
2019-05-16T01:01:18.958Z,1.80
2019-05-16T01:03:48.391Z,2.10
2019-05-16T01:06:22.683Z,2.40
2019-05-16T01:08:48.827Z,2.17
2019-05-16T01:11:18.576Z,2.10
2019-05-16T01:13:48.736Z,2.20
2019-05-16T01:16:18.689Z,2.10
2019-05-16T01:18:48.685Z,1.87
2019-05-16T01:21:18.544Z,1.97
2019-05-16T01:23:48.210Z,2.30
2019-05-16T01:26:18.585Z,1.70
2019-05-16T01:28:48.361Z,2.07
2019-05-16T01:31:19.247Z,1.90
2019-05-16T01:33:47.908Z,1.80
2019-05-16T01:36:26.231Z,1.80
2019-05-16T01:38:48.073Z,2.10
2019-05-16T01:41:18.058Z,2.03
2019-05-16T01:43:48.331Z,1.80
2019-05-16T01:46:18.058Z,1.67
2019-05-16T01:48:48.503Z,2.17
2019-05-16T01:51:18.436Z,2.60
2019-05-16T01:53:48.869Z,1.73
2019-05-16T01:56:17.943Z,1.57
2019-05-16T01:58:48.779Z,1.40
2019-05-16T02:01:19.052Z,2.00
2019-05-16T02:03:48.118Z,1.60
2019-05-16T02:06:18.334Z,1.90
2019-05-16T02:08:51.786Z,1.47
2019-05-16T02:11:20.398Z,1.43
2019-05-16T02:13:49.043Z,1.63
2019-05-16T02:16:18.703Z,1.63
2019-05-16T02:18:48.825Z,1.70
2019-05-16T02:21:18.244Z,1.57
2019-05-16T02:23:51.335Z,2.23
2019-05-16T02:26:19.209Z,1.50
2019-05-16T02:28:50.575Z,1.83
2019-05-16T02:31:17.922Z,1.47
2019-05-16T02:33:46.543Z,1.47
2019-05-16T02:36:15.264Z,1.43
2019-05-16T02:38:43.940Z,1.50
2019-05-16T02:41:12.636Z,1.77
2019-05-16T02:43:42.118Z,1.50
2019-05-16T02:46:11.918Z,1.40
2019-05-16T02:48:41.159Z,1.23
2019-05-16T02:51:11.033Z,1.10
2019-05-16T02:53:41.606Z,1.67
2019-05-16T02:56:12.196Z,1.23
2019-05-16T02:58:44.302Z,1.10
2019-05-16T03:01:11.131Z,1.37
2019-05-16T03:03:43.739Z,1.40
2019-05-16T03:06:11.318Z,1.40
2019-05-16T03:08:41.348Z,1.40
2019-05-16T03:11:11.944Z,1.43
2019-05-16T03:13:42.470Z,1.50
2019-05-16T03:16:12.109Z,1.30
2019-05-16T03:18:43.837Z,1.23
2019-05-16T03:21:12.797Z,1.80
2019-05-16T03:23:42.219Z,1.67
2019-05-16T03:26:11.723Z,1.53
2019-05-16T03:28:41.422Z,1.37
2019-05-16T03:31:15.259Z,1.50
2019-05-16T03:33:48.945Z,1.40
2019-05-16T03:36:14.579Z,1.30
2019-05-16T03:38:41.484Z,1.30
2019-05-16T03:41:11.577Z,1.27
2019-05-16T03:43:41.394Z,1.70
2019-05-16T03:46:11.911Z,1.60
2019-05-16T03:48:40.952Z,1.83
2019-05-16T03:51:11.269Z,1.50
2019-05-16T03:53:40.462Z,1.47
2019-05-16T03:56:11.139Z,2.30
2019-05-16T03:58:41.573Z,2.23
2019-05-16T04:01:11.127Z,2.00
2019-05-16T04:03:41.294Z,1.70
2019-05-16T04:06:11.800Z,2.00
2019-05-16T04:08:41.435Z,1.80
2019-05-16T04:11:11.682Z,1.90
2019-05-16T04:13:41.360Z,2.13
2019-05-16T04:16:11.846Z,2.30
2019-05-16T04:18:41.971Z,2.20
2019-05-16T04:21:11.807Z,1.90
2019-05-16T04:23:41.944Z,1.87
2019-05-16T04:26:11.496Z,2.00
2019-05-16T04:28:41.246Z,1.63
2019-05-16T04:31:11.081Z,1.60
2019-05-16T04:33:41.649Z,2.10
2019-05-16T04:36:12.211Z,1.40
2019-05-16T04:38:46.134Z,1.73
2019-05-16T04:41:11.687Z,1.70
2019-05-16T04:43:41.654Z,1.90
2019-05-16T04:46:11.720Z,1.67
2019-05-16T04:48:41.654Z,1.67
2019-05-16T04:51:10.740Z,2.00
2019-05-16T04:53:42.591Z,1.87
2019-05-16T04:56:11.084Z,2.13
2019-05-16T04:58:40.740Z,1.57
2019-05-16T05:01:11.528Z,1.53
2019-05-16T05:03:40.931Z,1.40
2019-05-16T05:06:11.342Z,2.30
2019-05-16T05:08:53.003Z,1.80
2019-05-16T05:11:10.865Z,1.67
2019-05-16T05:13:41.313Z,1.43
2019-05-16T05:16:10.593Z,2.17
2019-05-16T05:18:40.963Z,1.67
2019-05-16T05:21:11.654Z,2.00
2019-05-16T05:23:40.802Z,2.00
2019-05-16T05:26:10.813Z,1.90
2019-05-16T05:28:40.259Z,1.60
2019-05-16T05:31:10.804Z,2.50
2019-05-16T05:33:41.607Z,2.10
2019-05-16T05:36:12.388Z,1.77
2019-05-16T05:38:40.369Z,1.40
2019-05-16T05:41:10.682Z,2.00
2019-05-16T05:43:39.830Z,1.70
2019-05-16T05:46:10.983Z,1.40
2019-05-16T05:48:41.065Z,1.77
2019-05-16T05:51:11.298Z,1.40
2019-05-16T05:53:40.222Z,1.60
2019-05-16T05:56:11.220Z,1.60
2019-05-16T05:58:40.733Z,2.30
2019-05-16T06:01:11.067Z,1.83
2019-05-16T06:03:39.964Z,1.63
2019-05-16T06:06:10.536Z,2.00
2019-05-16T06:08:40.903Z,1.80
2019-05-16T06:11:10.050Z,1.80
2019-05-16T06:13:40.488Z,2.00
2019-05-16T06:16:10.797Z,2.20
2019-05-16T06:18:39.743Z,2.37
2019-05-16T06:21:11.225Z,2.03
2019-05-16T06:23:40.310Z,2.70
2019-05-16T06:26:30.307Z,3.13
2019-05-16T06:29:00.618Z,2.80
2019-05-16T06:31:31.317Z,3.40
2019-05-16T06:34:06.766Z,2.60
2019-05-16T06:36:30.543Z,2.73
2019-05-16T06:39:00.173Z,2.90
2019-05-16T06:41:30.404Z,2.53
2019-05-16T06:43:59.912Z,2.10
2019-05-16T06:46:30.705Z,2.00
2019-05-16T06:48:59.620Z,1.87
2019-05-16T06:51:30.441Z,2.00
2019-05-16T06:54:00.467Z,2.20
2019-05-16T06:56:30.824Z,1.90
2019-05-16T06:59:00.887Z,2.10
2019-05-16T07:01:29.812Z,2.17
2019-05-16T07:04:00.152Z,2.60
2019-05-16T07:06:48.419Z,2.80
2019-05-16T07:09:01.088Z,2.20
2019-05-16T07:11:30.649Z,2.40
2019-05-16T07:14:00.614Z,2.43
2019-05-16T07:16:29.925Z,2.10
2019-05-16T07:19:00.863Z,2.23
2019-05-16T07:21:31.220Z,2.00
2019-05-16T07:24:00.123Z,2.47
2019-05-16T07:26:30.975Z,2.03
2019-05-16T07:29:00.304Z,1.93
2019-05-16T07:31:30.054Z,2.03
2019-05-16T07:34:00.830Z,2.07
2019-05-16T07:36:31.528Z,1.70
2019-05-16T07:38:59.851Z,2.03
2019-05-16T07:41:30.906Z,2.20
2019-05-16T07:44:00.958Z,2.20
2019-05-16T07:46:31.351Z,2.00
2019-05-16T07:49:01.213Z,2.00
2019-05-16T07:51:31.072Z,2.00
2019-05-16T07:53:59.881Z,2.10
2019-05-16T07:56:30.669Z,2.57
2019-05-16T07:59:00.844Z,1.90
2019-05-16T08:01:30.691Z,2.15
2019-05-16T08:03:59.968Z,2.33
2019-05-16T08:06:31.019Z,1.80
2019-05-16T08:09:00.161Z,1.40
2019-05-16T08:11:30.404Z,1.57
2019-05-16T08:14:00.981Z,1.95
2019-05-16T08:16:30.640Z,1.62
2019-05-16T08:19:00.989Z,1.50
2019-05-16T08:21:30.892Z,1.77
2019-05-16T08:24:06.370Z,1.40
2019-05-16T08:26:32.374Z,1.77
2019-05-16T08:29:02.092Z,1.40
2019-05-16T08:31:31.853Z,1.55
2019-05-16T08:34:01.076Z,1.60
2019-05-16T08:36:31.323Z,1.87
2019-05-16T08:39:01.223Z,1.80
2019-05-16T08:41:31.604Z,1.75
2019-05-16T08:44:01.215Z,1.90
2019-05-16T08:46:32.218Z,1.65
2019-05-16T08:49:01.417Z,1.72
2019-05-16T08:51:33.088Z,2.30
2019-05-16T08:54:01.926Z,1.82
2019-05-16T08:59:02.434Z,1.75
2019-05-16T09:01:34.885Z,6.35
2019-05-16T09:04:01.702Z,2.15
2019-05-16T09:06:32.003Z,1.85
2019-05-16T09:09:15.656Z,1.75
2019-05-16T09:10:31.820Z,2.33
2019-05-16T09:11:40.441Z,1.80
2019-05-16T09:14:01.464Z,1.60
2019-05-16T09:16:30.081Z,1.70
2019-05-16T09:18:58.781Z,1.92
2019-05-16T09:21:27.691Z,2.33
2019-05-16T09:23:57.782Z,2.40
2019-05-16T09:26:27.935Z,1.67
2019-05-16T09:28:57.231Z,1.65
2019-05-16T09:31:27.495Z,1.70
2019-05-16T09:33:56.937Z,2.25
2019-05-16T09:36:28.001Z,2.08
2019-05-16T09:38:57.707Z,2.08
2019-05-16T09:41:27.250Z,1.80
2019-05-16T09:43:58.826Z,1.90
2019-05-16T09:46:27.597Z,2.10
2019-05-16T09:49:15.672Z,2.10
2019-05-16T09:51:27.328Z,2.10
2019-05-16T09:53:56.753Z,1.90
2019-05-16T09:56:27.012Z,2.10
2019-05-16T09:58:57.489Z,2.30
2019-05-16T10:01:27.625Z,1.92
2019-05-16T10:03:56.554Z,2.22
2019-05-16T10:06:27.450Z,2.27
2019-05-16T10:08:56.959Z,2.52
2019-05-16T10:11:30.950Z,1.70
2019-05-16T10:13:56.170Z,2.60
2019-05-16T10:16:27.362Z,2.70
2019-05-16T10:18:56.744Z,2.70
2019-05-16T10:21:27.176Z,2.20
2019-05-16T10:23:56.457Z,2.58
2019-05-16T10:26:27.701Z,2.87
2019-05-16T10:28:57.860Z,2.83
2019-05-16T10:31:38.565Z,2.33
2019-05-16T10:33:57.901Z,2.62
2019-05-16T10:36:28.087Z,2.58
2019-05-16T10:38:59.144Z,2.70
2019-05-16T10:41:30.048Z,1.95
2019-05-16T10:44:00.837Z,2.72
2019-05-16T10:46:29.089Z,2.35
2019-05-16T10:48:57.884Z,2.60
2019-05-16T10:51:26.944Z,2.20
2019-05-16T10:54:08.825Z,2.75
2019-05-16T10:56:26.155Z,2.52
2019-05-16T10:59:38.320Z,2.17
2019-05-16T11:01:38.120Z,2.75
2019-05-16T11:04:07.971Z,2.17
2019-05-16T11:06:37.225Z,2.90
2019-05-16T11:09:06.673Z,2.50
2019-05-16T11:11:36.783Z,2.55
2019-05-16T11:14:09.067Z,2.35
2019-05-16T11:16:36.800Z,3.02
2019-05-16T11:19:17.374Z,2.92
2019-05-16T11:21:37.710Z,2.83
2019-05-16T11:24:12.267Z,2.52
2019-05-16T11:26:36.815Z,3.30
2019-05-16T11:29:07.500Z,3.08
2019-05-16T11:31:37.258Z,2.60
2019-05-16T11:34:06.155Z,2.45
2019-05-16T11:36:37.473Z,3.30
2019-05-16T11:39:08.592Z,3.20
2019-05-16T11:41:37.615Z,3.17
2019-05-16T11:44:06.771Z,2.90
2019-05-16T11:46:37.492Z,3.37
2019-05-16T11:49:05.959Z,3.02
2019-05-16T11:51:34.670Z,3.52
2019-05-16T11:54:03.364Z,3.12
2019-05-16T11:56:31.989Z,3.50
2019-05-16T11:59:00.972Z,3.52
2019-05-16T12:01:29.554Z,3.67
2019-05-16T12:03:58.166Z,3.35
2019-05-16T12:06:27.037Z,3.20
2019-05-16T12:08:55.823Z,4.00
2019-05-16T12:11:27.250Z,5.25
2019-05-16T12:13:56.724Z,4.25
2019-05-16T12:16:27.327Z,3.70
2019-05-16T12:18:57.142Z,4.33
2019-05-16T12:21:27.526Z,4.60
2019-05-16T12:23:56.277Z,3.70
2019-05-16T12:26:27.923Z,3.80
2019-05-16T12:28:57.351Z,4.30
2019-05-16T12:31:25.604Z,3.92
2019-05-16T12:33:59.368Z,3.33
2019-05-16T12:36:26.793Z,2.95
2019-05-16T12:38:57.394Z,3.17
2019-05-16T12:41:28.502Z,3.47
2019-05-16T12:43:57.772Z,3.22
2019-05-16T12:46:27.226Z,3.02
2019-05-16T12:48:57.605Z,3.17
2019-05-16T12:51:26.528Z,2.55
2019-05-16T12:53:57.239Z,3.25
2019-05-16T12:56:27.115Z,3.37
2019-05-16T12:58:56.047Z,3.20
2019-05-16T13:01:32.811Z,2.65
2019-05-16T13:03:54.926Z,2.90
2019-05-16T13:06:23.599Z,3.02
2019-05-16T13:08:53.597Z,3.00
2019-05-16T13:11:22.553Z,3.00
2019-05-16T13:14:03.484Z,2.75
2019-05-16T13:16:21.651Z,3.37
2019-05-16T13:18:50.364Z,2.80
2019-05-16T13:21:22.513Z,3.12
2019-05-16T13:23:49.414Z,3.10
2019-05-16T13:26:18.009Z,3.27
2019-05-16T13:28:47.597Z,2.90
2019-05-16T13:31:17.108Z,2.70
2019-05-16T13:33:45.967Z,2.58
2019-05-16T13:36:17.260Z,3.42
2019-05-16T13:38:47.762Z,2.95
2019-05-16T13:41:18.014Z,3.47
2019-05-16T13:43:45.852Z,3.12
2019-05-16T13:46:17.030Z,2.47
2019-05-16T13:48:44.924Z,2.85
2019-05-16T13:51:15.705Z,2.72
2019-05-16T13:53:44.240Z,2.92
2019-05-16T13:56:13.698Z,3.47
2019-05-16T13:58:42.567Z,3.62
2019-05-16T14:01:11.245Z,2.67
2019-05-16T14:03:39.848Z,3.33
2019-05-16T14:06:08.913Z,3.15
2019-05-16T14:08:37.616Z,3.37
2019-05-16T14:11:10.068Z,3.90
2019-05-16T14:13:37.582Z,3.60
2019-05-16T14:16:07.274Z,3.33
2019-05-16T14:18:37.933Z,3.90
2019-05-16T14:21:06.999Z,3.40
2019-05-16T14:23:37.984Z,3.85
2019-05-16T14:26:07.229Z,3.83
2019-05-16T14:28:37.409Z,3.62
2019-05-16T14:31:07.315Z,3.45
2019-05-16T14:33:36.776Z,3.98
2019-05-16T14:36:07.445Z,3.70
2019-05-16T14:38:37.431Z,3.52
2019-05-16T14:41:08.098Z,3.33
2019-05-16T14:43:37.421Z,2.87
2019-05-16T14:46:09.419Z,3.75
2019-05-16T14:48:36.940Z,3.20
2019-05-16T14:51:06.116Z,3.47
2019-05-16T14:53:37.615Z,3.52
2019-05-16T14:56:07.102Z,3.75
2019-05-16T14:58:37.784Z,3.83
2019-05-16T15:01:07.322Z,3.83
2019-05-16T15:03:36.686Z,3.40
2019-05-16T15:06:08.660Z,4.15
2019-05-16T15:08:36.440Z,3.35
2019-05-16T15:11:07.403Z,3.27
2019-05-16T15:13:35.503Z,3.47
2019-05-16T15:16:04.188Z,3.15
2019-05-16T15:18:32.952Z,3.15
2019-05-16T15:21:01.681Z,3.55
2019-05-16T15:23:30.584Z,3.37
2019-05-16T15:25:59.196Z,3.50
2019-05-16T15:28:30.416Z,4.17
2019-05-16T15:30:58.263Z,3.77
2019-05-16T15:33:27.440Z,3.90
2019-05-16T15:35:57.793Z,3.80
2019-05-16T15:38:27.206Z,3.85
2019-05-16T15:40:57.299Z,3.75
2019-05-16T15:43:27.479Z,3.72
2019-05-16T15:45:57.860Z,3.70
2019-05-16T15:48:27.721Z,3.72
2019-05-16T15:50:59.573Z,3.80
2019-05-16T15:53:27.228Z,4.28
2019-05-16T15:55:57.720Z,4.35
2019-05-16T15:58:26.779Z,3.87
2019-05-16T16:00:57.902Z,3.90
2019-05-16T16:03:27.266Z,3.65
2019-05-16T16:05:56.190Z,4.17
2019-05-16T16:08:27.915Z,4.10
2019-05-16T16:10:55.491Z,4.17
2019-05-16T16:13:26.600Z,4.17
2019-05-16T16:15:57.462Z,3.65
2019-05-16T16:18:27.050Z,3.85
2019-05-16T16:20:57.023Z,3.77
2019-05-16T16:23:27.304Z,3.92
2019-05-16T16:25:59.722Z,3.70
2019-05-16T16:28:27.075Z,4.92
2019-05-16T16:30:56.952Z,3.90
2019-05-16T16:33:29.912Z,3.55
2019-05-16T16:35:57.227Z,4.60
2019-05-16T16:38:26.081Z,4.12
2019-05-16T16:40:57.159Z,4.28
2019-05-16T16:43:25.176Z,3.70
2019-05-16T16:46:06.276Z,4.08
2019-05-16T16:48:26.592Z,4.17
2019-05-16T16:50:57.204Z,4.25
2019-05-16T16:53:27.060Z,3.95
2019-05-16T16:55:56.849Z,4.15
2019-05-16T16:58:26.614Z,5.03
2019-05-16T17:00:55.523Z,5.83
2019-05-16T17:03:24.143Z,4.08
2019-05-16T17:05:52.930Z,4.12
2019-05-16T17:08:23.335Z,4.47
2019-05-16T17:10:51.917Z,4.20
2019-05-16T17:13:20.382Z,4.15
2019-05-16T17:15:49.036Z,4.62
2019-05-16T17:18:17.652Z,3.98
2019-05-16T17:20:47.753Z,4.90
2019-05-16T17:23:17.342Z,4.05
2019-05-16T17:25:47.212Z,4.92
2019-05-16T17:28:17.450Z,3.87
2019-05-16T17:30:47.066Z,4.12
2019-05-16T17:33:18.155Z,4.10
2019-05-16T17:35:48.762Z,4.60
2019-05-16T17:38:17.334Z,4.72
2019-05-16T17:40:47.293Z,5.12
2019-05-16T17:43:16.427Z,5.12
2019-05-16T17:45:47.007Z,5.33
2019-05-16T17:48:17.523Z,4.47
2019-05-16T17:50:47.298Z,4.95
2019-05-16T17:53:17.473Z,4.55
2019-05-16T17:55:47.240Z,4.10
2019-05-16T17:58:16.519Z,5.72
2019-05-16T18:00:47.164Z,4.97
2019-05-16T18:03:17.395Z,5.10
2019-05-16T18:05:47.484Z,4.90
2019-05-16T18:08:37.580Z,4.67
2019-05-16T18:11:07.148Z,4.80
2019-05-16T18:13:37.081Z,4.72
2019-05-16T18:16:07.450Z,5.40
2019-05-16T18:18:37.807Z,5.75
2019-05-16T18:21:07.084Z,6.33
2019-05-16T18:23:36.921Z,4.87
2019-05-16T18:26:07.721Z,5.15
2019-05-16T18:28:36.708Z,6.12
2019-05-16T18:31:05.386Z,5.58
2019-05-16T18:33:34.099Z,5.40
2019-05-16T18:36:02.791Z,5.55
2019-05-16T18:38:31.935Z,6.00
2019-05-16T18:41:00.615Z,5.72
2019-05-16T18:43:29.275Z,6.35
2019-05-16T18:45:57.842Z,5.80
2019-05-16T18:48:27.300Z,6.15
2019-05-16T18:50:57.630Z,5.42
2019-05-16T18:53:27.037Z,5.45
2019-05-16T18:55:57.081Z,6.50
2019-05-16T18:58:27.050Z,5.85
2019-05-16T19:00:55.818Z,6.42
2019-05-16T19:03:26.848Z,6.72
2019-05-16T19:05:57.147Z,6.60
2019-05-16T19:08:27.126Z,6.15
2019-05-16T19:10:56.768Z,6.05
2019-05-16T19:13:27.677Z,6.42
2019-05-16T19:15:57.149Z,7.30
2019-05-16T19:18:26.366Z,7.20
2019-05-16T19:20:57.141Z,6.80
2019-05-16T19:23:26.883Z,6.20
2019-05-16T19:25:56.914Z,6.50
2019-05-16T19:28:28.296Z,7.28
2019-05-16T19:30:57.273Z,7.47
2019-05-16T19:33:26.083Z,7.50
2019-05-16T19:35:56.547Z,8.03
2019-05-16T19:38:26.521Z,7.43
2019-05-16T19:40:57.562Z,7.25
2019-05-16T19:43:26.586Z,8.05
2019-05-16T19:45:57.307Z,8.47
2019-05-16T19:48:26.689Z,8.57
2019-05-16T19:50:56.858Z,8.03
2019-05-16T19:53:27.178Z,7.65
2019-05-16T19:55:56.665Z,8.10
2019-05-16T19:58:26.689Z,7.97
2019-05-16T20:00:57.205Z,8.60
2019-05-16T20:03:27.218Z,8.20
2019-05-16T20:05:56.940Z,8.77
2019-05-16T20:08:26.939Z,8.65
2019-05-16T20:10:55.978Z,9.15
2019-05-16T20:13:24.650Z,9.38
2019-05-16T20:15:53.320Z,8.63
2019-05-16T20:18:22.016Z,9.03
2019-05-16T20:20:50.683Z,10.23
2019-05-16T20:23:19.349Z,10.43
2019-05-16T20:25:48.028Z,11.40
2019-05-16T20:28:18.394Z,11.20
2019-05-16T20:30:47.531Z,12.73
2019-05-16T20:33:17.966Z,11.97
2019-05-16T20:35:46.985Z,12.43
2019-05-16T20:38:17.272Z,11.90
2019-05-16T20:40:46.713Z,12.43
2019-05-16T20:43:16.899Z,12.40
2019-05-16T20:45:47.586Z,12.07
2019-05-16T20:48:18.482Z,12.73
2019-05-16T20:50:48.876Z,11.97
2019-05-16T20:53:17.590Z,13.47
2019-05-16T20:55:49.327Z,12.80
2019-05-16T20:58:16.782Z,14.40
2019-05-16T21:00:46.929Z,13.07
2019-05-16T21:03:16.303Z,14.00
2019-05-16T21:05:48.072Z,14.77
2019-05-16T21:08:17.226Z,13.20
2019-05-16T21:10:46.477Z,13.83
2019-05-16T21:13:17.187Z,14.53
2019-05-16T21:15:47.696Z,16.43
2019-05-16T21:18:16.718Z,15.13
2019-05-16T21:20:47.029Z,15.07
2019-05-16T21:23:16.650Z,14.67
2019-05-16T21:25:46.753Z,16.07
2019-05-16T21:28:17.084Z,15.67
2019-05-16T21:30:47.372Z,15.33
2019-05-16T21:33:18.426Z,13.93
2019-05-16T21:35:47.042Z,16.07
2019-05-16T21:38:16.524Z,15.90
2019-05-16T21:40:45.583Z,16.07
2019-05-16T21:43:16.668Z,16.40
2019-05-16T21:45:47.274Z,15.60
2019-05-16T21:48:16.313Z,16.40
2019-05-16T21:50:46.290Z,17.27
2019-05-16T21:53:15.096Z,15.43
2019-05-16T21:55:43.714Z,17.57
2019-05-16T21:58:12.388Z,17.33
2019-05-16T22:00:47.368Z,16.33
2019-05-16T22:03:15.468Z,17.20
2019-05-16T22:05:46.341Z,19.27
2019-05-16T22:08:16.590Z,19.43
2019-05-16T22:10:46.768Z,18.33
2019-05-16T22:13:15.570Z,18.30
2019-05-16T22:15:46.374Z,19.67
2019-05-16T22:18:16.638Z,20.30
2019-05-16T22:20:48.788Z,20.17
2019-05-16T22:23:17.350Z,21.80
2019-05-16T22:25:48.692Z,21.43
2019-05-16T22:28:17.223Z,21.37
2019-05-16T22:30:46.051Z,24.60
2019-05-16T22:33:14.675Z,23.77
2019-05-16T22:35:43.331Z,26.57
2019-05-16T22:38:12.213Z,26.97
2019-05-16T22:40:40.885Z,27.90
2019-05-16T22:43:10.325Z,28.03
2019-05-16T22:45:39.642Z,29.63
2019-05-16T22:48:08.333Z,29.73
2019-05-16T22:50:37.091Z,30.63
2019-05-16T22:53:06.475Z,29.43
2019-05-16T22:55:37.116Z,29.43
2019-05-16T22:58:07.339Z,29.83
2019-05-16T23:00:39.384Z,27.67
2019-05-16T23:03:06.844Z,28.97
2019-05-16T23:05:36.926Z,29.47
2019-05-16T23:08:09.759Z,29.13
2019-05-16T23:10:37.067Z,28.03
2019-05-16T23:13:06.811Z,30.93
2019-05-16T23:15:35.705Z,32.33
2019-05-16T23:18:06.799Z,30.57
2019-05-16T23:20:37.039Z,29.93
2019-05-16T23:23:07.108Z,28.83
2019-05-16T23:25:37.121Z,28.87
2019-05-16T23:28:07.682Z,29.63
2019-05-16T23:30:36.634Z,29.23
2019-05-16T23:33:07.217Z,28.20
2019-05-16T23:35:37.644Z,29.97
2019-05-16T23:38:18.470Z,28.10
2019-05-16T23:40:37.490Z,27.70
2019-05-16T23:43:07.680Z,30.20
2019-05-16T23:45:37.637Z,27.97
2019-05-16T23:48:10.392Z,28.30
2019-05-16T23:50:36.867Z,28.73
2019-05-16T23:53:07.307Z,27.90
2019-05-16T23:55:37.110Z,27.93
2019-05-16T23:58:07.079Z,27.70
